Time;durP1;ratioP1;P1;durP2;ratioP2;P2;SDS_P1;SDS_P2;PMS_P1;PMS_P2;Temp;Humidity;BMP_temperature;BMP_pressure;BME280_temperature;BME280_humidity;BME280_pressure;Samples;Min_cycle;Max_cycle;Signal;HPM_P1;HPM_P2
2021/12/10 00:00:21;;;;;;;7.30;4.25;;;;;;;;;;4992351;28;20057;-74
2021/12/10 00:02:48;;;;;;;7.88;4.50;;;;;;;;;;4991740;28;20041;-74
2021/12/10 00:05:24;;;;;;;7.75;4.25;;;;;;;;;;4992785;28;20242;-74
2021/12/10 00:07:51;;;;;;;7.38;4.78;;;;;;;;;;4992733;28;20064;-75
2021/12/10 00:10:22;;;;;;;8.27;4.15;;;;;;;;;;4992468;28;20030;-74
2021/12/10 00:12:51;;;;;;;7.95;4.22;;;;;;;;;;4990926;28;20045;-75
2021/12/10 00:15:23;;;;;;;7.07;4.40;;;;;;;;;;4992231;28;20049;-74
2021/12/10 00:17:51;;;;;;;8.10;4.40;;;;;;;;;;4990521;28;20046;-74
2021/12/10 00:20:19;;;;;;;7.43;4.72;;;;;;;;;;4991937;28;20030;-74
2021/12/10 00:22:54;;;;;;;7.93;3.72;;;;;;;;;;4991857;28;20369;-74
2021/12/10 00:25:25;;;;;;;7.38;3.90;;;;;;;;;;4991808;28;20049;-74
2021/12/10 00:27:54;;;;;;;8.83;4.50;;;;;;;;;;4991401;28;20038;-75
2021/12/10 00:30:27;;;;;;;8.57;4.85;;;;;;;;;;4990205;28;20057;-73
2021/12/10 00:33:14;;;;;;;10.57;4.75;;;;;;;;;;4990748;28;20029;-73
2021/12/10 00:35:41;;;;;;;10.98;4.60;;;;;;;;;;4970721;28;20038;-73
2021/12/10 00:38:09;;;;;;;11.20;4.60;;;;;;;;;;4971881;28;20046;-74
2021/12/10 00:40:35;;;;;;;8.30;5.03;;;;;;;;;;4971757;28;20613;-73
2021/12/10 00:43:03;;;;;;;9.52;4.38;;;;;;;;;;4971934;28;20047;-74
2021/12/10 00:45:29;;;;;;;10.23;4.68;;;;;;;;;;4971827;28;20050;-73
2021/12/10 00:47:56;;;;;;;9.70;5.03;;;;;;;;;;4972157;28;20042;-73
2021/12/10 00:50:28;;;;;;;9.68;4.70;;;;;;;;;;4970133;28;20039;-73
2021/12/10 00:52:55;;;;;;;11.65;4.47;;;;;;;;;;4989284;28;20038;-73
2021/12/10 00:55:23;;;;;;;9.10;4.30;;;;;;;;;;4992402;28;20369;-73
2021/12/10 00:57:49;;;;;;;9.13;4.32;;;;;;;;;;4992187;28;20034;-74
2021/12/10 01:00:20;;;;;;;9.23;4.38;;;;;;;;;;5006487;28;20050;-73
2021/12/10 01:02:46;;;;;;;15.18;5.20;;;;;;;;;;4991850;28;20050;-73
2021/12/10 01:05:14;;;;;;;7.50;4.03;;;;;;;;;;4992113;28;20042;-73
2021/12/10 01:07:41;;;;;;;12.55;4.15;;;;;;;;;;4992107;28;20621;-74
2021/12/10 01:10:13;;;;;;;13.32;4.63;;;;;;;;;;4991975;28;20489;-73
2021/12/10 01:12:51;;;;;;;11.25;3.83;;;;;;;;;;4992013;28;20038;-73
2021/12/10 01:15:52;;;;;;;10.63;4.57;;;;;;;;;;4991953;28;20616;-74
2021/12/10 01:24:17;;;;;;;7.47;4.38;;;;;;;;;;4995075;28;20046;-74
2021/12/10 01:29:20;;;;;;;10.95;4.30;;;;;;;;;;4992192;28;20045;-74
2021/12/10 01:31:46;;;;;;;10.90;4.50;;;;;;;;;;4991838;28;20034;-75
2021/12/10 01:34:13;;;;;;;13.52;4.63;;;;;;;;;;4991651;28;20045;-74
2021/12/10 01:36:40;;;;;;;10.60;4.50;;;;;;;;;;4991916;28;20409;-74
2021/12/10 01:39:10;;;;;;;11.63;4.68;;;;;;;;;;4990860;28;20041;-74
2021/12/10 01:41:39;;;;;;;10.75;4.70;;;;;;;;;;4990968;28;20034;-74
2021/12/10 01:44:15;;;;;;;9.00;4.05;;;;;;;;;;4993491;28;20042;-74
2021/12/10 01:46:43;;;;;;;10.75;4.85;;;;;;;;;;4995154;28;20042;-74
2021/12/10 01:49:12;;;;;;;9.70;4.70;;;;;;;;;;4995514;28;20038;-74
2021/12/10 01:51:41;;;;;;;8.10;4.40;;;;;;;;;;4994689;28;20038;-74
2021/12/10 01:54:13;;;;;;;11.57;4.47;;;;;;;;;;4993247;28;20160;-74
2021/12/10 01:56:40;;;;;;;11.88;4.32;;;;;;;;;;4995405;28;20045;-74
2021/12/10 01:59:10;;;;;;;13.48;4.50;;;;;;;;;;4994960;28;20038;-74
2021/12/10 02:01:41;;;;;;;9.48;4.00;;;;;;;;;;4995219;28;20488;-74
2021/12/10 02:04:11;;;;;;;9.38;3.55;;;;;;;;;;4994496;28;20038;-74
2021/12/10 02:06:38;;;;;;;9.13;3.45;;;;;;;;;;4994272;28;20045;-74
2021/12/10 02:09:05;;;;;;;11.45;3.17;;;;;;;;;;4992634;28;20380;-73
2021/12/10 02:11:32;;;;;;;11.68;3.08;;;;;;;;;;4992741;28;20038;-73
2021/12/10 02:13:58;;;;;;;9.30;2.85;;;;;;;;;;5008881;28;20034;-73
2021/12/10 02:16:24;;;;;;;10.40;2.67;;;;;;;;;;4993941;28;20547;-74
2021/12/10 02:18:50;;;;;;;9.55;2.65;;;;;;;;;;4994538;28;20038;-73
2021/12/10 02:21:19;;;;;;;11.60;3.17;;;;;;;;;;4994547;28;20068;-74
2021/12/10 02:23:51;;;;;;;8.30;2.28;;;;;;;;;;4993781;28;20050;-74
2021/12/10 02:26:17;;;;;;;8.93;2.55;;;;;;;;;;4994142;28;20041;-74
2021/12/10 02:28:44;;;;;;;7.13;2.42;;;;;;;;;;4994314;28;20042;-74
2021/12/10 02:31:12;;;;;;;7.90;2.42;;;;;;;;;;4993274;28;20030;-74
2021/12/10 02:33:39;;;;;;;11.68;3.00;;;;;;;;;;4993468;28;20065;-73
2021/12/10 02:36:10;;;;;;;8.27;2.10;;;;;;;;;;4993461;28;20041;-74
2021/12/10 02:38:38;;;;;;;13.82;2.78;;;;;;;;;;4991845;28;20034;-74
2021/12/10 02:41:04;;;;;;;10.95;2.33;;;;;;;;;;4993315;28;20074;-74
2021/12/10 02:43:30;;;;;;;9.27;2.30;;;;;;;;;;4977320;28;20039;-73
2021/12/10 02:45:57;;;;;;;8.02;2.53;;;;;;;;;;4993246;28;20042;-74
2021/12/10 02:48:24;;;;;;;7.43;2.40;;;;;;;;;;4993032;28;20038;-74
2021/12/10 02:50:52;;;;;;;9.60;2.28;;;;;;;;;;4993540;28;20046;-74
2021/12/10 02:53:24;;;;;;;13.40;2.90;;;;;;;;;;4993397;28;20400;-74
2021/12/10 02:55:50;;;;;;;9.02;2.47;;;;;;;;;;4993591;28;20038;-74
2021/12/10 02:58:16;;;;;;;10.40;2.58;;;;;;;;;;4993511;28;20042;-74
2021/12/10 03:01:03;;;;;;;11.88;2.58;;;;;;;;;;4993405;28;20401;-74
2021/12/10 03:03:29;;;;;;;6.32;2.30;;;;;;;;;;4992760;28;20500;-74
2021/12/10 03:05:56;;;;;;;7.53;1.98;;;;;;;;;;4992863;28;20126;-74
2021/12/10 03:08:22;;;;;;;9.95;2.65;;;;;;;;;;4992633;28;20041;-74
2021/12/10 03:10:48;;;;;;;9.52;2.25;;;;;;;;;;4992231;28;20046;-74
2021/12/10 03:13:15;;;;;;;7.55;2.38;;;;;;;;;;4992270;28;20026;-74
2021/12/10 03:15:42;;;;;;;12.32;2.53;;;;;;;;;;4992435;28;20118;-74
2021/12/10 03:18:12;;;;;;;4.82;2.22;;;;;;;;;;4992441;28;20047;-74
2021/12/10 03:20:38;;;;;;;8.18;2.20;;;;;;;;;;4992268;28;20038;-73
2021/12/10 03:23:05;;;;;;;14.77;2.80;;;;;;;;;;4992141;28;20106;-73
2021/12/10 03:25:31;;;;;;;9.93;2.38;;;;;;;;;;4992161;28;20605;-73
2021/12/10 03:27:57;;;;;;;11.45;2.80;;;;;;;;;;4992168;28;20476;-73
2021/12/10 03:30:30;;;;;;;11.77;2.78;;;;;;;;;;4992442;28;20042;-73
2021/12/10 03:32:56;;;;;;;12.10;2.63;;;;;;;;;;4992254;28;20065;-73
2021/12/10 03:35:28;;;;;;;15.20;4.55;;;;;;;;;;4992610;28;20473;-73
2021/12/10 03:37:57;;;;;;;8.32;3.22;;;;;;;;;;4992546;28;20053;-73
2021/12/10 03:40:23;;;;;;;7.60;3.97;;;;;;;;;;4992246;28;20039;-73
2021/12/10 03:42:53;;;;;;;12.30;3.95;;;;;;;;;;4992519;28;20058;-73
2021/12/10 03:45:19;;;;;;;15.73;4.07;;;;;;;;;;4992498;28;20046;-73
2021/12/10 03:47:45;;;;;;;13.80;5.50;;;;;;;;;;4992495;28;20057;-73
2021/12/10 03:50:19;;;;;;;12.55;4.80;;;;;;;;;;4992065;28;20034;-74
2021/12/10 03:52:45;;;;;;;18.02;5.05;;;;;;;;;;4992659;28;20472;-74
2021/12/10 03:55:13;;;;;;;13.18;4.72;;;;;;;;;;4992321;28;20053;-74
2021/12/10 03:57:39;;;;;;;15.27;5.32;;;;;;;;;;4992568;28;20097;-74
2021/12/10 04:00:06;;;;;;;12.57;4.97;;;;;;;;;;4992153;28;20057;-74
2021/12/10 04:02:32;;;;;;;21.13;5.03;;;;;;;;;;4992003;28;20484;-74
2021/12/10 04:04:58;;;;;;;12.20;4.90;;;;;;;;;;4991750;28;20125;-74
2021/12/10 04:07:26;;;;;;;16.10;6.53;;;;;;;;;;5006124;28;20042;-73
2021/12/10 04:09:53;;;;;;;16.25;5.25;;;;;;;;;;4992196;28;20038;-73
2021/12/10 04:12:20;;;;;;;12.68;5.10;;;;;;;;;;4992252;28;20041;-74
2021/12/10 04:14:49;;;;;;;16.20;5.28;;;;;;;;;;4992089;28;20038;-74
2021/12/10 04:17:19;;;;;;;9.27;4.40;;;;;;;;;;4992079;28;20602;-74
2021/12/10 04:19:45;;;;;;;16.60;4.32;;;;;;;;;;4991785;28;20038;-74
2021/12/10 04:22:13;;;;;;;13.32;4.45;;;;;;;;;;4990273;28;20045;-73
2021/12/10 04:24:40;;;;;;;12.55;5.10;;;;;;;;;;4991684;28;20043;-75
2021/12/10 04:27:09;;;;;;;17.58;5.07;;;;;;;;;;5006539;28;20050;-74
2021/12/10 04:29:35;;;;;;;14.73;4.80;;;;;;;;;;4991842;28;20038;-74
2021/12/10 04:32:03;;;;;;;9.73;4.80;;;;;;;;;;4988977;28;20034;-74
2021/12/10 04:34:29;;;;;;;11.50;4.82;;;;;;;;;;4991667;28;20038;-74
2021/12/10 04:36:58;;;;;;;16.05;5.35;;;;;;;;;;4991383;28;20030;-74
2021/12/10 04:39:25;;;;;;;16.95;5.25;;;;;;;;;;4990787;28;20018;-75
2021/12/10 04:41:52;;;;;;;12.27;4.70;;;;;;;;;;4991482;28;20034;-74
2021/12/10 04:44:18;;;;;;;14.80;5.75;;;;;;;;;;4991664;28;20489;-74
2021/12/10 04:46:45;;;;;;;10.77;4.78;;;;;;;;;;4991518;28;20049;-74
2021/12/10 04:49:13;;;;;;;11.30;4.90;;;;;;;;;;4991475;28;20038;-74
2021/12/10 04:51:51;;;;;;;18.33;5.25;;;;;;;;;;4991660;28;20396;-73
2021/12/10 04:54:20;;;;;;;22.92;8.38;;;;;;;;;;5006895;28;20046;-75
2021/12/10 04:56:47;;;;;;;32.22;14.77;;;;;;;;;;5006481;28;20049;-74
2021/12/10 04:59:16;;;;;;;16.48;7.43;;;;;;;;;;4991428;28;20031;-73
2021/12/10 05:01:42;;;;;;;19.95;9.98;;;;;;;;;;4991181;28;20042;-74
2021/12/10 05:04:09;;;;;;;27.80;17.17;;;;;;;;;;5005234;28;20049;-74
2021/12/10 05:06:36;;;;;;;25.02;13.48;;;;;;;;;;4988923;28;20042;-73
2021/12/10 05:09:06;;;;;;;15.02;7.03;;;;;;;;;;4991316;28;20519;-74
2021/12/10 05:11:32;;;;;;;11.40;5.00;;;;;;;;;;4991541;28;20042;-74
2021/12/10 05:13:57;;;;;;;15.77;5.63;;;;;;;;;;4990587;28;20105;-74
2021/12/10 05:16:26;;;;;;;15.07;7.00;;;;;;;;;;4989256;28;20166;-74
2021/12/10 05:18:58;;;;;;;17.23;6.97;;;;;;;;;;4984976;28;20053;-74
2021/12/10 05:21:25;;;;;;;14.90;6.28;;;;;;;;;;4987635;28;20039;-74
2021/12/10 05:23:52;;;;;;;19.08;8.02;;;;;;;;;;4985541;28;20058;-75
2021/12/10 05:26:18;;;;;;;13.20;6.25;;;;;;;;;;4986489;28;20085;-75
2021/12/10 05:28:44;;;;;;;20.48;8.65;;;;;;;;;;5000525;28;20034;-75
2021/12/10 05:31:10;;;;;;;20.25;9.75;;;;;;;;;;4990000;28;20034;-75
2021/12/10 05:33:36;;;;;;;29.45;17.17;;;;;;;;;;4995377;28;20085;-70
2021/12/10 05:36:02;;;;;;;22.42;14.57;;;;;;;;;;4974868;28;20077;-74
2021/12/10 05:38:31;;;;;;;19.35;8.07;;;;;;;;;;4981769;28;20038;-73
2021/12/10 05:40:58;;;;;;;14.38;7.20;;;;;;;;;;4987678;28;20485;-76
2021/12/10 05:43:25;;;;;;;10.70;5.13;;;;;;;;;;4989521;28;20042;-75
2021/12/10 05:45:52;;;;;;;14.02;5.65;;;;;;;;;;4975558;28;20042;-75
2021/12/10 05:48:19;;;;;;;18.83;6.55;;;;;;;;;;4973969;28;20065;-75
2021/12/10 05:50:50;;;;;;;23.30;9.73;;;;;;;;;;4978042;28;20046;-75
2021/12/10 05:53:16;;;;;;;16.27;6.65;;;;;;;;;;4991996;28;20421;-75
2021/12/10 05:55:43;;;;;;;15.65;8.18;;;;;;;;;;4990447;28;20035;-75
2021/12/10 05:58:11;;;;;;;25.33;13.43;;;;;;;;;;4981919;28;20037;-75
2021/12/10 06:00:41;;;;;;;25.73;12.80;;;;;;;;;;4983447;28;20043;-75
2021/12/10 06:03:10;;;;;;;20.75;9.73;;;;;;;;;;4989767;28;20046;-75
2021/12/10 06:05:36;;;;;;;16.70;8.60;;;;;;;;;;4977092;28;20026;-73
2021/12/10 06:08:04;;;;;;;22.20;9.35;;;;;;;;;;4994283;28;20038;-73
2021/12/10 06:10:31;;;;;;;16.58;6.95;;;;;;;;;;4983527;28;20035;-70
2021/12/10 06:12:57;;;;;;;18.23;5.70;;;;;;;;;;4987980;28;20030;-71
2021/12/10 06:15:25;;;;;;;13.25;5.50;;;;;;;;;;4971948;28;20038;-71
2021/12/10 06:17:51;;;;;;;16.67;5.80;;;;;;;;;;5006475;28;20412;-75
2021/12/10 06:20:21;;;;;;;11.75;5.10;;;;;;;;;;4994224;28;20041;-71
2021/12/10 06:22:47;;;;;;;13.20;5.10;;;;;;;;;;4983952;28;20042;-72
2021/12/10 06:25:14;;;;;;;14.70;4.82;;;;;;;;;;4977041;28;20378;-71
2021/12/10 06:27:44;;;;;;;14.30;5.25;;;;;;;;;;4985085;28;20034;-73
2021/12/10 06:30:22;;;;;;;27.73;13.15;;;;;;;;;;4989344;28;20042;-70
2021/12/10 06:32:50;;;;;;;26.08;12.88;;;;;;;;;;4992092;28;20022;-78
2021/12/10 06:35:17;;;;;;;22.02;7.80;;;;;;;;;;4989674;28;20489;-76
2021/12/10 06:37:44;;;;;;;18.35;5.32;;;;;;;;;;4975596;28;20050;-79
2021/12/10 06:40:13;;;;;;;10.63;5.32;;;;;;;;;;4982814;28;20035;-79
2021/12/10 06:42:40;;;;;;;14.90;5.70;;;;;;;;;;4998837;28;20038;-75
2021/12/10 06:45:09;;;;;;;13.85;4.95;;;;;;;;;;4989452;28;20026;-77
2021/12/10 06:47:35;;;;;;;13.40;5.78;;;;;;;;;;4983384;28;20508;-81
2021/12/10 06:50:04;;;;;;;16.67;5.72;;;;;;;;;;4989289;28;20118;-85
2021/12/10 06:52:31;;;;;;;15.23;6.28;;;;;;;;;;4982767;28;20019;-76
2021/12/10 06:54:57;;;;;;;12.25;5.72;;;;;;;;;;4990274;28;20038;-76
2021/12/10 06:57:23;;;;;;;18.33;5.47;;;;;;;;;;4992198;28;20053;-78
2021/12/10 06:59:49;;;;;;;15.60;6.60;;;;;;;;;;4993677;28;20483;-78
2021/12/10 07:02:15;;;;;;;17.73;6.10;;;;;;;;;;4991604;28;20070;-78
2021/12/10 07:04:42;;;;;;;13.55;5.20;;;;;;;;;;4992367;28;20400;-76
2021/12/10 07:07:10;;;;;;;18.42;6.00;;;;;;;;;;4993172;28;20038;-79
2021/12/10 07:09:36;;;;;;;11.43;6.05;;;;;;;;;;4993497;28;20608;-78
2021/12/10 07:12:04;;;;;;;13.27;5.93;;;;;;;;;;4980660;28;20043;-79
2021/12/10 07:14:31;;;;;;;18.75;5.63;;;;;;;;;;4989796;28;20408;-78
2021/12/10 07:16:57;;;;;;;15.65;6.05;;;;;;;;;;4993455;28;20034;-78
2021/12/10 07:19:26;;;;;;;14.40;6.15;;;;;;;;;;4993017;28;20494;-77
2021/12/10 07:21:53;;;;;;;14.50;5.15;;;;;;;;;;4993654;28;20408;-79
2021/12/10 07:24:20;;;;;;;16.30;5.18;;;;;;;;;;4976882;28;20043;-79
2021/12/10 07:26:48;;;;;;;14.57;6.03;;;;;;;;;;4999978;28;20034;-79
2021/12/10 07:29:15;;;;;;;13.80;5.18;;;;;;;;;;4991612;28;20046;-79
2021/12/10 07:31:43;;;;;;;10.80;5.32;;;;;;;;;;4983837;28;20039;-78
2021/12/10 07:34:10;;;;;;;11.73;5.28;;;;;;;;;;4987024;28;20031;-79
2021/12/10 07:36:38;;;;;;;11.05;5.03;;;;;;;;;;4986582;28;20053;-79
2021/12/10 07:39:07;;;;;;;14.40;4.85;;;;;;;;;;4993311;28;20073;-79
2021/12/10 07:41:33;;;;;;;12.82;4.75;;;;;;;;;;4989634;28;20508;-79
2021/12/10 07:44:01;;;;;;;14.52;5.30;;;;;;;;;;4992856;28;20034;-79
2021/12/10 07:46:28;;;;;;;10.68;4.45;;;;;;;;;;4992695;28;20034;-79
2021/12/10 07:48:55;;;;;;;14.95;4.57;;;;;;;;;;4993175;28;20050;-79
2021/12/10 07:51:26;;;;;;;10.82;3.83;;;;;;;;;;4992475;28;20045;-79
2021/12/10 07:53:57;;;;;;;10.17;4.07;;;;;;;;;;4992617;28;20034;-79
2021/12/10 07:56:26;;;;;;;10.35;3.47;;;;;;;;;;4992309;28;20094;-79
2021/12/10 07:58:52;;;;;;;9.25;4.07;;;;;;;;;;4991582;28;20126;-79
2021/12/10 08:01:24;;;;;;;9.38;3.80;;;;;;;;;;4995931;28;20042;-79
2021/12/10 08:03:52;;;;;;;19.17;4.65;;;;;;;;;;4992048;28;20043;-79
2021/12/10 08:06:20;;;;;;;10.88;3.50;;;;;;;;;;4991648;28;20046;-79
2021/12/10 08:08:48;;;;;;;8.50;3.83;;;;;;;;;;4985859;28;20054;-79
2021/12/10 08:11:14;;;;;;;13.10;4.28;;;;;;;;;;4986929;28;20523;-78
2021/12/10 08:13:40;;;;;;;11.70;3.92;;;;;;;;;;4999444;28;20050;-78
2021/12/10 08:16:06;;;;;;;10.15;4.55;;;;;;;;;;4994887;28;20481;-78
2021/12/10 08:18:33;;;;;;;15.73;4.45;;;;;;;;;;4992943;28;20065;-78
2021/12/10 08:20:59;;;;;;;10.90;3.85;;;;;;;;;;4979702;28;20043;-78
2021/12/10 08:23:25;;;;;;;9.40;3.97;;;;;;;;;;4974706;28;20049;-78
2021/12/10 08:25:51;;;;;;;9.18;4.55;;;;;;;;;;4979487;28;20038;-80
2021/12/10 08:28:21;;;;;;;12.73;4.07;;;;;;;;;;4987869;28;20050;-79
2021/12/10 08:30:49;;;;;;;12.80;3.95;;;;;;;;;;5002703;28;20048;-79
2021/12/10 08:33:17;;;;;;;14.93;6.28;;;;;;;;;;5005196;28;20030;-79
2021/12/10 08:35:49;;;;;;;10.57;4.20;;;;;;;;;;5017425;28;20026;-79
2021/12/10 08:38:15;;;;;;;10.15;3.92;;;;;;;;;;5017548;28;20025;-78
2021/12/10 08:40:45;;;;;;;11.55;4.30;;;;;;;;;;5011528;28;20051;-79
2021/12/10 08:43:11;;;;;;;11.02;4.05;;;;;;;;;;5012738;28;20041;-79
2021/12/10 08:45:38;;;;;;;10.45;3.75;;;;;;;;;;5016198;28;20047;-79
2021/12/10 08:48:06;;;;;;;12.55;4.03;;;;;;;;;;5016789;28;20034;-78
2021/12/10 08:50:33;;;;;;;8.82;4.18;;;;;;;;;;5006101;28;20023;-78
2021/12/10 08:53:03;;;;;;;9.63;4.40;;;;;;;;;;5005331;28;20037;-79
2021/12/10 08:55:31;;;;;;;8.98;3.80;;;;;;;;;;5000480;28;20039;-78
2021/12/10 08:57:57;;;;;;;10.15;4.50;;;;;;;;;;5010013;28;20043;-78
2021/12/10 09:00:23;;;;;;;12.18;4.45;;;;;;;;;;5005528;28;20030;-77
2021/12/10 09:02:51;;;;;;;10.73;4.63;;;;;;;;;;5003540;28;20034;-79
2021/12/10 09:05:18;;;;;;;12.05;4.85;;;;;;;;;;4999859;28;20046;-79
2021/12/10 09:07:45;;;;;;;7.63;4.20;;;;;;;;;;4996231;28;20034;-79
2021/12/10 09:10:15;;;;;;;11.30;5.10;;;;;;;;;;4990891;28;20042;-79
2021/12/10 09:12:41;;;;;;;13.25;4.25;;;;;;;;;;4996871;28;20059;-79
2021/12/10 09:15:11;;;;;;;10.80;4.10;;;;;;;;;;4996348;28;20049;-79
2021/12/10 09:17:40;;;;;;;11.77;3.95;;;;;;;;;;4996295;28;20357;-79
2021/12/10 09:20:13;;;;;;;13.48;5.10;;;;;;;;;;4996151;28;20477;-79
2021/12/10 09:22:42;;;;;;;12.75;4.35;;;;;;;;;;4994092;28;20043;-80
2021/12/10 09:25:09;;;;;;;14.20;4.20;;;;;;;;;;4993597;28;20046;-79
2021/12/10 09:27:36;;;;;;;10.13;4.65;;;;;;;;;;4993042;28;20051;-79
2021/12/10 09:30:06;;;;;;;7.70;4.10;;;;;;;;;;4992833;28;20049;-79
2021/12/10 09:32:32;;;;;;;10.25;4.18;;;;;;;;;;4993632;28;20042;-79
2021/12/10 09:35:02;;;;;;;11.15;4.50;;;;;;;;;;4994463;28;20476;-79
2021/12/10 09:37:29;;;;;;;12.60;4.10;;;;;;;;;;4993234;28;20511;-79
2021/12/10 09:39:55;;;;;;;11.43;4.38;;;;;;;;;;4991560;28;20496;-79
2021/12/10 09:42:22;;;;;;;11.63;4.22;;;;;;;;;;4991067;28;20045;-79
2021/12/10 09:44:53;;;;;;;13.65;4.82;;;;;;;;;;4992590;28;20045;-79
2021/12/10 09:47:20;;;;;;;11.85;4.95;;;;;;;;;;4990105;28;20519;-79
2021/12/10 09:49:49;;;;;;;10.55;4.75;;;;;;;;;;4989631;28;20433;-79
2021/12/10 09:52:18;;;;;;;10.90;4.47;;;;;;;;;;4991106;28;20030;-79
2021/12/10 09:54:46;;;;;;;10.98;4.05;;;;;;;;;;4980976;28;20484;-79
2021/12/10 09:57:18;;;;;;;10.20;4.32;;;;;;;;;;4968891;28;20043;-79
2021/12/10 09:59:46;;;;;;;12.05;4.80;;;;;;;;;;4970918;28;20042;-79
2021/12/10 10:02:13;;;;;;;9.35;3.95;;;;;;;;;;4971220;28;20038;-79
2021/12/10 10:04:45;;;;;;;10.45;3.60;;;;;;;;;;4972612;28;20046;-79
2021/12/10 10:07:15;;;;;;;7.63;3.80;;;;;;;;;;4987049;28;20042;-79
2021/12/10 10:09:46;;;;;;;12.02;3.95;;;;;;;;;;4994644;28;20051;-79
2021/12/10 10:12:20;;;;;;;8.13;3.45;;;;;;;;;;4994610;28;20032;-79
2021/12/10 10:14:47;;;;;;;8.07;3.67;;;;;;;;;;4993809;28;20592;-79
2021/12/10 10:17:15;;;;;;;11.70;4.82;;;;;;;;;;4980576;28;20505;-79
2021/12/10 10:19:42;;;;;;;7.40;3.30;;;;;;;;;;4990140;28;20202;-79
2021/12/10 10:22:14;;;;;;;10.73;3.30;;;;;;;;;;4995039;28;20050;-80
2021/12/10 10:24:40;;;;;;;9.77;3.35;;;;;;;;;;4993243;28;20519;-79
2021/12/10 10:27:13;;;;;;;13.38;3.70;;;;;;;;;;4995779;28;20054;-78
2021/12/10 10:29:43;;;;;;;12.13;4.00;;;;;;;;;;4994481;28;20042;-79
2021/12/10 10:32:12;;;;;;;12.27;3.83;;;;;;;;;;4998092;28;20050;-79
2021/12/10 10:34:46;;;;;;;14.25;3.97;;;;;;;;;;4997114;28;20054;-80
2021/12/10 10:37:12;;;;;;;15.05;4.22;;;;;;;;;;4996889;28;20064;-78
2021/12/10 10:39:41;;;;;;;9.05;3.47;;;;;;;;;;4989990;28;20042;-80
2021/12/10 10:42:12;;;;;;;9.40;3.75;;;;;;;;;;4993513;28;20413;-78
2021/12/10 10:44:38;;;;;;;;;;;;;;;;;;4994828;28;20392;-78
2021/12/10 10:47:04;;;;;;;7.18;3.38;;;;;;;;;;5005983;28;20000;-78
2021/12/10 10:49:33;;;;;;;7.45;3.17;;;;;;;;;;4980286;28;20485;-78
2021/12/10 10:52:29;;;;;;;14.00;4.10;;;;;;;;;;4974808;28;20042;-78
2021/12/10 10:55:25;;;;;;;16.25;4.07;;;;;;;;;;4979964;28;20046;-79
2021/12/10 10:57:59;;;;;;;10.40;3.80;;;;;;;;;;4994451;28;20526;-78
2021/12/10 11:00:29;;;;;;;11.90;3.65;;;;;;;;;;4994229;28;20491;-78
2021/12/10 11:03:01;;;;;;;9.00;3.08;;;;;;;;;;4994861;28;20050;-79
2021/12/10 11:05:27;;;;;;;9.80;3.65;;;;;;;;;;4993746;28;20046;-78
2021/12/10 11:07:57;;;;;;;10.30;3.97;;;;;;;;;;4989772;28;20358;-80
2021/12/10 11:10:34;;;;;;;7.18;3.05;;;;;;;;;;4975470;28;20054;-77
2021/12/10 11:13:21;;;;;;;8.15;3.42;;;;;;;;;;4973705;28;20054;-78
2021/12/10 11:16:10;;;;;;;6.72;2.63;;;;;;;;;;4973452;28;20280;-79
2021/12/10 11:18:54;;;;;;;7.88;3.10;;;;;;;;;;4989394;28;20038;-77
2021/12/10 11:21:47;;;;;;;12.05;3.00;;;;;;;;;;4981996;28;20037;-77
2021/12/10 11:24:24;;;;;;;6.93;3.22;;;;;;;;;;4982433;28;20047;-77
2021/12/10 11:27:03;;;;;;;9.65;3.33;;;;;;;;;;4989575;28;20042;-77
2021/12/10 11:29:45;;;;;;;8.68;2.70;;;;;;;;;;4991316;28;20050;-77
2021/12/10 11:32:31;;;;;;;8.35;2.85;;;;;;;;;;4992989;28;20042;-78
2021/12/10 11:35:25;;;;;;;6.65;2.90;;;;;;;;;;4979289;28;20034;-78
2021/12/10 11:37:57;;;;;;;9.35;2.88;;;;;;;;;;4981993;28;20038;-77
2021/12/10 11:41:01;;;;;;;6.80;2.80;;;;;;;;;;4990804;28;20061;-77
2021/12/10 11:47:12;;;;;;;12.68;3.10;;;;;;;;;;4990412;28;20030;-77
2021/12/10 11:49:40;;;;;;;8.07;2.88;;;;;;;;;;4980183;28;20048;-76
2021/12/10 11:52:08;;;;;;;8.82;2.80;;;;;;;;;;4990424;28;20041;-76
2021/12/10 11:55:06;;;;;;;7.20;3.05;;;;;;;;;;4992310;28;20591;-77
2021/12/10 11:57:36;;;;;;;7.65;3.00;;;;;;;;;;4992229;28;20031;-78
2021/12/10 12:00:13;;;;;;;8.27;3.10;;;;;;;;;;4979950;28;20042;-78
2021/12/10 12:02:50;;;;;;;6.60;2.83;;;;;;;;;;4989776;28;20038;-78
2021/12/10 12:05:21;;;;;;;7.47;2.67;;;;;;;;;;4987782;28;20045;-77
2021/12/10 12:07:52;;;;;;;7.40;2.75;;;;;;;;;;4992239;28;20491;-77
2021/12/10 12:10:28;;;;;;;9.82;3.13;;;;;;;;;;4980633;28;20058;-78
2021/12/10 12:13:09;;;;;;;6.38;2.92;;;;;;;;;;4973139;28;20046;-77
2021/12/10 12:15:43;;;;;;;8.23;3.20;;;;;;;;;;4973345;28;20038;-78
2021/12/10 12:18:29;;;;;;;10.73;3.80;;;;;;;;;;4991858;28;20049;-77
2021/12/10 12:20:59;;;;;;;8.10;3.13;;;;;;;;;;4990722;28;20399;-77
2021/12/10 12:26:27;;;;;;;9.55;4.15;;;;;;;;;;4996321;28;20050;-78
2021/12/10 12:28:58;;;;;;;12.73;3.97;;;;;;;;;;4972960;28;20043;-78
2021/12/10 12:31:27;;;;;;;7.47;3.70;;;;;;;;;;4973718;28;20035;-78
2021/12/10 12:33:57;;;;;;;8.98;3.95;;;;;;;;;;4981046;28;20110;-78
2021/12/10 12:36:27;;;;;;;9.80;3.70;;;;;;;;;;4991971;28;20469;-78
2021/12/10 12:38:53;;;;;;;9.90;3.70;;;;;;;;;;4992579;28;20030;-79
2021/12/10 12:41:30;;;;;;;8.18;3.47;;;;;;;;;;4992088;28;20088;-79
2021/12/10 12:44:13;;;;;;;9.73;4.50;;;;;;;;;;4993965;28;20033;-78
2021/12/10 12:47:08;;;;;;;9.23;3.67;;;;;;;;;;4994270;28;20412;-78
2021/12/10 12:49:56;;;;;;;6.72;3.38;;;;;;;;;;4993440;28;20046;-79
2021/12/10 12:52:29;;;;;;;9.35;3.25;;;;;;;;;;4992286;28;20042;-78
2021/12/10 12:55:08;;;;;;;8.68;3.05;;;;;;;;;;4992012;28;20045;-78
2021/12/10 12:57:47;;;;;;;8.02;3.03;;;;;;;;;;4992017;28;20041;-78
2021/12/10 13:00:57;;;;;;;6.82;2.90;;;;;;;;;;4991851;28;20034;-78
2021/12/10 13:03:40;;;;;;;7.32;2.72;;;;;;;;;;4991336;28;20034;-78
2021/12/10 13:06:22;;;;;;;5.38;2.35;;;;;;;;;;4992988;28;20369;-78
2021/12/10 13:09:07;;;;;;;5.00;2.50;;;;;;;;;;4990341;28;20471;-78
2021/12/10 13:12:10;;;;;;;7.78;2.53;;;;;;;;;;4992678;28;20362;-79
2021/12/10 13:15:03;;;;;;;4.40;2.45;;;;;;;;;;4985561;28;20047;-79
2021/12/10 13:17:37;;;;;;;5.80;2.47;;;;;;;;;;4987308;28;20046;-78
2021/12/10 13:20:12;;;;;;;5.97;2.70;;;;;;;;;;5005648;28;20030;-79
2021/12/10 13:22:39;;;;;;;6.20;2.67;;;;;;;;;;4991993;28;20042;-79
2021/12/10 13:25:11;;;;;;;7.72;3.17;;;;;;;;;;4991650;28;20654;-77
2021/12/10 13:27:40;;;;;;;4.60;2.25;;;;;;;;;;4972187;28;20039;-77
2021/12/10 13:30:14;;;;;;;5.30;2.50;;;;;;;;;;4988232;28;20049;-77
2021/12/10 13:32:43;;;;;;;7.88;2.88;;;;;;;;;;4991612;28;20042;-78
2021/12/10 13:35:11;;;;;;;6.60;2.67;;;;;;;;;;4990159;28;20505;-76
2021/12/10 13:37:37;;;;;;;6.78;2.75;;;;;;;;;;4991286;28;20042;-78
2021/12/10 13:40:04;;;;;;;6.20;2.60;;;;;;;;;;4993226;28;20045;-77
2021/12/10 13:42:30;;;;;;;6.45;3.05;;;;;;;;;;4994217;28;20030;-78
2021/12/10 13:44:57;;;;;;;5.55;2.70;;;;;;;;;;4995255;28;20049;-75
2021/12/10 13:47:25;;;;;;;9.13;3.00;;;;;;;;;;4995015;28;20397;-75
2021/12/10 13:50:00;;;;;;;9.57;3.00;;;;;;;;;;4995120;28;20393;-76
2021/12/10 13:52:41;;;;;;;8.25;3.30;;;;;;;;;;4985263;28;20552;-74
2021/12/10 13:55:14;;;;;;;9.63;3.33;;;;;;;;;;4982861;28;20613;-74
2021/12/10 13:57:40;;;;;;;8.30;3.25;;;;;;;;;;4993888;28;20042;-75
2021/12/10 14:00:09;;;;;;;6.57;3.22;;;;;;;;;;4993833;28;20038;-75
2021/12/10 14:02:40;;;;;;;9.35;3.17;;;;;;;;;;4992547;28;20030;-74
2021/12/10 14:05:17;;;;;;;;;;;;;;;;;;4993673;28;20485;-75
2021/12/10 14:08:01;;;;;;;9.98;3.58;;;;;;;;;;4993542;28;19910;-74
2021/12/10 14:10:31;;;;;;;7.50;3.08;;;;;;;;;;4993361;28;20515;-74
2021/12/10 14:13:03;;;;;;;8.07;3.58;;;;;;;;;;4993920;28;20043;-75
2021/12/10 14:15:49;;;;;;;6.82;3.30;;;;;;;;;;4993847;28;20064;-75
2021/12/10 14:18:24;;;;;;;9.40;3.28;;;;;;;;;;4993096;28;20366;-75
2021/12/10 14:20:52;;;;;;;7.45;3.40;;;;;;;;;;4994970;28;20062;-74
2021/12/10 14:23:24;;;;;;;8.95;3.35;;;;;;;;;;4993745;28;20038;-69
2021/12/10 14:25:55;;;;;;;6.72;3.33;;;;;;;;;;4991352;28;20054;-69
2021/12/10 14:28:50;;;;;;;7.75;3.55;;;;;;;;;;4994045;28;20064;-69
2021/12/10 14:31:22;;;;;;;8.63;3.60;;;;;;;;;;4994681;28;20053;-75
2021/12/10 14:33:53;;;;;;;8.20;3.33;;;;;;;;;;4989822;28;20085;-75
2021/12/10 14:36:20;;;;;;;;;;;;;;;;;;4980488;28;20047;-75
2021/12/10 14:38:54;;;;;;;7.63;3.72;;;;;;;;;;4974189;28;19921;-75
2021/12/10 14:41:28;;;;;;;7.82;3.67;;;;;;;;;;4993983;28;20374;-76
2021/12/10 14:43:56;;;;;;;7.40;3.10;;;;;;;;;;4988884;28;20046;-74
2021/12/10 14:46:42;;;;;;;8.20;3.40;;;;;;;;;;4973894;28;20049;-75
2021/12/10 14:49:28;;;;;;;11.30;3.72;;;;;;;;;;4983145;28;20054;-75
2021/12/10 14:52:21;;;;;;;9.65;4.30;;;;;;;;;;4992210;28;20050;-75
2021/12/10 14:55:06;;;;;;;9.93;3.78;;;;;;;;;;4993398;28;20030;-75
2021/12/10 14:57:52;;;;;;;10.02;4.35;;;;;;;;;;4992576;28;20492;-75
2021/12/10 15:00:27;;;;;;;10.68;4.57;;;;;;;;;;4982402;28;20061;-75
2021/12/10 15:02:59;;;;;;;8.63;4.10;;;;;;;;;;4993015;28;20038;-75
2021/12/10 15:05:51;;;;;;;11.57;4.47;;;;;;;;;;4993449;28;20065;-75
2021/12/10 15:08:36;;;;;;;14.90;5.10;;;;;;;;;;4989325;28;20057;-75
2021/12/10 15:11:19;;;;;;;11.48;4.35;;;;;;;;;;4992577;28;20046;-75